sensor_id;sensor_type;location;lat;lon;timestamp;P1;durP1;ratioP1;P2;durP2;ratioP2
17598;SDS011;8918;52.092;5.232;2023-04-01T00:01:03;25.20;;;12.97;;
17598;SDS011;8918;52.092;5.232;2023-04-01T00:03:30;33.70;;;12.97;;
17598;SDS011;8918;52.092;5.232;2023-04-01T00:05:58;29.70;;;12.03;;
17598;SDS011;8918;52.092;5.232;2023-04-01T00:08:25;30.30;;;12.90;;
17598;SDS011;8918;52.092;5.232;2023-04-01T00:10:51;28.23;;;12.33;;
17598;SDS011;8918;52.092;5.232;2023-04-01T00:13:17;26.80;;;13.27;;
17598;SDS011;8918;52.092;5.232;2023-04-01T00:15:43;28.50;;;11.90;;
17598;SDS011;8918;52.092;5.232;2023-04-01T00:18:09;26.60;;;11.53;;
17598;SDS011;8918;52.092;5.232;2023-04-01T00:20:35;35.03;;;13.47;;
17598;SDS011;8918;52.092;5.232;2023-04-01T00:23:01;28.93;;;11.77;;
17598;SDS011;8918;52.092;5.232;2023-04-01T00:25:27;21.47;;;10.60;;
17598;SDS011;8918;52.092;5.232;2023-04-01T00:27:52;30.60;;;12.97;;
17598;SDS011;8918;52.092;5.232;2023-04-01T00:30:18;25.53;;;12.03;;
17598;SDS011;8918;52.092;5.232;2023-04-01T00:32:44;26.00;;;11.20;;
17598;SDS011;8918;52.092;5.232;2023-04-01T00:35:10;24.17;;;11.43;;
17598;SDS011;8918;52.092;5.232;2023-04-01T00:37:36;25.73;;;11.43;;
17598;SDS011;8918;52.092;5.232;2023-04-01T00:40:03;22.30;;;10.37;;
17598;SDS011;8918;52.092;5.232;2023-04-01T00:42:31;20.87;;;10.43;;
17598;SDS011;8918;52.092;5.232;2023-04-01T00:44:57;22.13;;;10.60;;
17598;SDS011;8918;52.092;5.232;2023-04-01T00:47:23;23.87;;;10.10;;
17598;SDS011;8918;52.092;5.232;2023-04-01T00:49:51;23.17;;;10.67;;
17598;SDS011;8918;52.092;5.232;2023-04-01T00:52:23;23.30;;;12.13;;
17598;SDS011;8918;52.092;5.232;2023-04-01T00:54:52;33.70;;;12.77;;
17598;SDS011;8918;52.092;5.232;2023-04-01T00:57:31;30.13;;;13.07;;
17598;SDS011;8918;52.092;5.232;2023-04-01T01:00:02;35.87;;;13.63;;
17598;SDS011;8918;52.092;5.232;2023-04-01T01:02:32;33.97;;;14.43;;
17598;SDS011;8918;52.092;5.232;2023-04-01T01:04:59;30.53;;;14.27;;
17598;SDS011;8918;52.092;5.232;2023-04-01T01:13:10;31.20;;;13.47;;
17598;SDS011;8918;52.092;5.232;2023-04-01T01:18:30;31.17;;;13.57;;
17598;SDS011;8918;52.092;5.232;2023-04-01T01:37:50;12.97;;;7.97;;
17598;SDS011;8918;52.092;5.232;2023-04-01T01:40:22;16.07;;;8.60;;
17598;SDS011;8918;52.092;5.232;2023-04-01T01:42:50;14.07;;;7.20;;
17598;SDS011;8918;52.092;5.232;2023-04-01T01:45:20;12.53;;;6.57;;
17598;SDS011;8918;52.092;5.232;2023-04-01T01:47:49;11.37;;;6.87;;
17598;SDS011;8918;52.092;5.232;2023-04-01T01:50:16;9.97;;;6.60;;
17598;SDS011;8918;52.092;5.232;2023-04-01T01:52:44;11.23;;;6.70;;
17598;SDS011;8918;52.092;5.232;2023-04-01T01:55:29;11.03;;;6.37;;
17598;SDS011;8918;52.092;5.232;2023-04-01T01:58:02;12.60;;;6.90;;
17598;SDS011;8918;52.092;5.232;2023-04-01T02:00:36;15.63;;;7.37;;
17598;SDS011;8918;52.092;5.232;2023-04-01T02:03:04;14.33;;;7.27;;
17598;SDS011;8918;52.092;5.232;2023-04-01T02:05:30;14.30;;;7.90;;
17598;SDS011;8918;52.092;5.232;2023-04-01T02:08:01;14.37;;;7.80;;
17598;SDS011;8918;52.092;5.232;2023-04-01T02:10:31;13.17;;;7.70;;
17598;SDS011;8918;52.092;5.232;2023-04-01T02:13:02;12.60;;;7.37;;
17598;SDS011;8918;52.092;5.232;2023-04-01T02:15:35;13.90;;;7.60;;
17598;SDS011;8918;52.092;5.232;2023-04-01T02:18:05;15.77;;;8.03;;
17598;SDS011;8918;52.092;5.232;2023-04-01T02:20:31;17.33;;;8.17;;
17598;SDS011;8918;52.092;5.232;2023-04-01T02:22:57;17.70;;;7.97;;
17598;SDS011;8918;52.092;5.232;2023-04-01T02:25:28;15.23;;;7.73;;
17598;SDS011;8918;52.092;5.232;2023-04-01T02:27:58;14.50;;;7.97;;
17598;SDS011;8918;52.092;5.232;2023-04-01T02:30:25;16.17;;;8.17;;
17598;SDS011;8918;52.092;5.232;2023-04-01T02:32:54;13.13;;;8.00;;
17598;SDS011;8918;52.092;5.232;2023-04-01T02:35:21;15.23;;;8.83;;
17598;SDS011;8918;52.092;5.232;2023-04-01T02:37:48;15.67;;;8.60;;
17598;SDS011;8918;52.092;5.232;2023-04-01T02:40:15;19.40;;;9.47;;
17598;SDS011;8918;52.092;5.232;2023-04-01T02:42:41;19.00;;;8.97;;
17598;SDS011;8918;52.092;5.232;2023-04-01T02:45:07;17.87;;;9.50;;
17598;SDS011;8918;52.092;5.232;2023-04-01T02:47:33;13.70;;;7.47;;
17598;SDS011;8918;52.092;5.232;2023-04-01T02:49:59;13.87;;;7.70;;
17598;SDS011;8918;52.092;5.232;2023-04-01T02:52:25;14.67;;;7.13;;
17598;SDS011;8918;52.092;5.232;2023-04-01T02:54:51;15.93;;;7.23;;
17598;SDS011;8918;52.092;5.232;2023-04-01T02:57:17;12.27;;;7.00;;
17598;SDS011;8918;52.092;5.232;2023-04-01T02:59:43;13.87;;;6.90;;
17598;SDS011;8918;52.092;5.232;2023-04-01T03:02:08;13.30;;;6.40;;
17598;SDS011;8918;52.092;5.232;2023-04-01T03:04:34;12.50;;;5.90;;
17598;SDS011;8918;52.092;5.232;2023-04-01T03:06:59;9.23;;;5.83;;
17598;SDS011;8918;52.092;5.232;2023-04-01T03:09:25;12.10;;;6.33;;
17598;SDS011;8918;52.092;5.232;2023-04-01T03:11:50;11.87;;;5.93;;
17598;SDS011;8918;52.092;5.232;2023-04-01T03:14:16;11.43;;;6.43;;
17598;SDS011;8918;52.092;5.232;2023-04-01T03:16:42;11.80;;;6.50;;
17598;SDS011;8918;52.092;5.232;2023-04-01T03:19:07;10.47;;;6.03;;
17598;SDS011;8918;52.092;5.232;2023-04-01T03:21:33;12.90;;;6.00;;
17598;SDS011;8918;52.092;5.232;2023-04-01T03:23:58;12.30;;;6.00;;
17598;SDS011;8918;52.092;5.232;2023-04-01T03:26:24;9.40;;;5.80;;
17598;SDS011;8918;52.092;5.232;2023-04-01T03:28:51;10.37;;;6.27;;
17598;SDS011;8918;52.092;5.232;2023-04-01T03:31:17;11.07;;;6.13;;
17598;SDS011;8918;52.092;5.232;2023-04-01T03:33:43;12.03;;;6.90;;
17598;SDS011;8918;52.092;5.232;2023-04-01T03:36:08;11.13;;;7.20;;
17598;SDS011;8918;52.092;5.232;2023-04-01T03:38:36;14.80;;;7.47;;
17598;SDS011;8918;52.092;5.232;2023-04-01T03:41:02;13.43;;;7.40;;
17598;SDS011;8918;52.092;5.232;2023-04-01T03:43:28;10.53;;;6.97;;
17598;SDS011;8918;52.092;5.232;2023-04-01T03:45:54;10.80;;;7.23;;
17598;SDS011;8918;52.092;5.232;2023-04-01T03:48:22;11.27;;;7.33;;
17598;SDS011;8918;52.092;5.232;2023-04-01T03:50:48;11.80;;;7.37;;
17598;SDS011;8918;52.092;5.232;2023-04-01T03:53:14;10.77;;;6.93;;
17598;SDS011;8918;52.092;5.232;2023-04-01T03:55:40;13.17;;;7.73;;
17598;SDS011;8918;52.092;5.232;2023-04-01T03:58:06;13.00;;;7.40;;
17598;SDS011;8918;52.092;5.232;2023-04-01T04:00:32;14.30;;;7.63;;
17598;SDS011;8918;52.092;5.232;2023-04-01T04:02:58;13.20;;;8.10;;
17598;SDS011;8918;52.092;5.232;2023-04-01T04:05:24;13.00;;;8.23;;
17598;SDS011;8918;52.092;5.232;2023-04-01T04:07:50;17.60;;;9.10;;
17598;SDS011;8918;52.092;5.232;2023-04-01T04:10:16;17.07;;;9.23;;
17598;SDS011;8918;52.092;5.232;2023-04-01T04:12:42;18.30;;;9.70;;
17598;SDS011;8918;52.092;5.232;2023-04-01T04:15:08;15.77;;;9.13;;
17598;SDS011;8918;52.092;5.232;2023-04-01T04:17:34;18.33;;;9.77;;
17598;SDS011;8918;52.092;5.232;2023-04-01T04:20:00;17.53;;;9.33;;
17598;SDS011;8918;52.092;5.232;2023-04-01T04:22:26;18.07;;;9.27;;
17598;SDS011;8918;52.092;5.232;2023-04-01T04:24:51;18.60;;;9.53;;
17598;SDS011;8918;52.092;5.232;2023-04-01T04:27:17;19.77;;;8.50;;
17598;SDS011;8918;52.092;5.232;2023-04-01T04:29:43;15.17;;;7.53;;
17598;SDS011;8918;52.092;5.232;2023-04-01T04:32:08;13.60;;;7.30;;
17598;SDS011;8918;52.092;5.232;2023-04-01T04:34:34;13.83;;;6.80;;
17598;SDS011;8918;52.092;5.232;2023-04-01T04:37:00;12.13;;;6.33;;
17598;SDS011;8918;52.092;5.232;2023-04-01T04:39:25;11.60;;;5.90;;
17598;SDS011;8918;52.092;5.232;2023-04-01T04:41:51;11.83;;;5.57;;
17598;SDS011;8918;52.092;5.232;2023-04-01T04:44:16;10.67;;;5.37;;
17598;SDS011;8918;52.092;5.232;2023-04-01T04:46:42;10.67;;;5.27;;
17598;SDS011;8918;52.092;5.232;2023-04-01T04:49:08;10.77;;;6.03;;
17598;SDS011;8918;52.092;5.232;2023-04-01T04:51:33;15.47;;;6.60;;
17598;SDS011;8918;52.092;5.232;2023-04-01T04:54:00;14.07;;;6.50;;
17598;SDS011;8918;52.092;5.232;2023-04-01T04:56:30;12.13;;;6.20;;
17598;SDS011;8918;52.092;5.232;2023-04-01T04:58:56;11.87;;;6.30;;
17598;SDS011;8918;52.092;5.232;2023-04-01T05:01:22;11.80;;;6.63;;
17598;SDS011;8918;52.092;5.232;2023-04-01T05:03:47;12.27;;;6.67;;
17598;SDS011;8918;52.092;5.232;2023-04-01T05:06:13;12.60;;;6.47;;
17598;SDS011;8918;52.092;5.232;2023-04-01T05:08:40;13.77;;;6.60;;
17598;SDS011;8918;52.092;5.232;2023-04-01T05:11:09;11.33;;;6.73;;
17598;SDS011;8918;52.092;5.232;2023-04-01T05:13:46;12.47;;;6.80;;
17598;SDS011;8918;52.092;5.232;2023-04-01T05:16:13;12.87;;;6.93;;
17598;SDS011;8918;52.092;5.232;2023-04-01T05:18:40;13.33;;;7.10;;
17598;SDS011;8918;52.092;5.232;2023-04-01T05:21:07;12.43;;;7.20;;
17598;SDS011;8918;52.092;5.232;2023-04-01T05:23:34;12.23;;;7.33;;
17598;SDS011;8918;52.092;5.232;2023-04-01T05:26:10;13.80;;;8.17;;
17598;SDS011;8918;52.092;5.232;2023-04-01T05:28:38;16.03;;;8.47;;
17598;SDS011;8918;52.092;5.232;2023-04-01T05:31:04;15.47;;;9.17;;
17598;SDS011;8918;52.092;5.232;2023-04-01T05:33:30;15.00;;;8.70;;
17598;SDS011;8918;52.092;5.232;2023-04-01T05:35:56;14.13;;;7.87;;
17598;SDS011;8918;52.092;5.232;2023-04-01T05:38:22;13.73;;;8.20;;
17598;SDS011;8918;52.092;5.232;2023-04-01T05:40:47;13.83;;;8.70;;
17598;SDS011;8918;52.092;5.232;2023-04-01T05:43:13;15.17;;;8.67;;
17598;SDS011;8918;52.092;5.232;2023-04-01T05:45:38;16.40;;;8.97;;
17598;SDS011;8918;52.092;5.232;2023-04-01T05:48:04;15.20;;;8.97;;
17598;SDS011;8918;52.092;5.232;2023-04-01T05:50:30;15.43;;;9.43;;
17598;SDS011;8918;52.092;5.232;2023-04-01T05:52:56;15.43;;;9.63;;
17598;SDS011;8918;52.092;5.232;2023-04-01T05:55:22;15.90;;;9.23;;
17598;SDS011;8918;52.092;5.232;2023-04-01T05:57:47;16.77;;;9.93;;
17598;SDS011;8918;52.092;5.232;2023-04-01T06:00:14;15.20;;;9.93;;
17598;SDS011;8918;52.092;5.232;2023-04-01T06:02:40;18.30;;;10.37;;
17598;SDS011;8918;52.092;5.232;2023-04-01T06:07:38;19.73;;;10.37;;
17598;SDS011;8918;52.092;5.232;2023-04-01T06:10:09;18.17;;;10.17;;
17598;SDS011;8918;52.092;5.232;2023-04-01T06:26:30;17.43;;;9.57;;
17598;SDS011;8918;52.092;5.232;2023-04-01T06:51:02;12.67;;;7.20;;
17598;SDS011;8918;52.092;5.232;2023-04-01T06:56:17;14.67;;;7.50;;
17598;SDS011;8918;52.092;5.232;2023-04-01T06:58:54;11.80;;;7.37;;
17598;SDS011;8918;52.092;5.232;2023-04-01T07:01:55;12.03;;;7.60;;
17598;SDS011;8918;52.092;5.232;2023-04-01T07:04:31;11.73;;;6.73;;
17598;SDS011;8918;52.092;5.232;2023-04-01T07:07:03;13.33;;;7.07;;
17598;SDS011;8918;52.092;5.232;2023-04-01T07:09:37;14.27;;;7.37;;
17598;SDS011;8918;52.092;5.232;2023-04-01T07:14:55;14.70;;;7.87;;
17598;SDS011;8918;52.092;5.232;2023-04-01T07:17:25;14.90;;;8.37;;
17598;SDS011;8918;52.092;5.232;2023-04-01T07:19:56;16.43;;;8.60;;
17598;SDS011;8918;52.092;5.232;2023-04-01T07:22:34;16.63;;;9.07;;
17598;SDS011;8918;52.092;5.232;2023-04-01T07:25:13;18.07;;;9.00;;
17598;SDS011;8918;52.092;5.232;2023-04-01T07:27:45;18.83;;;10.00;;
17598;SDS011;8918;52.092;5.232;2023-04-01T07:30:15;17.07;;;9.43;;
17598;SDS011;8918;52.092;5.232;2023-04-01T07:32:44;17.83;;;9.47;;
17598;SDS011;8918;52.092;5.232;2023-04-01T07:36:28;14.70;;;8.47;;
17598;SDS011;8918;52.092;5.232;2023-04-01T07:38:50;17.43;;;8.70;;
17598;SDS011;8918;52.092;5.232;2023-04-01T07:46:56;15.90;;;8.63;;
17598;SDS011;8918;52.092;5.232;2023-04-01T07:49:49;16.53;;;9.50;;
17598;SDS011;8918;52.092;5.232;2023-04-01T07:52:39;15.43;;;8.63;;
17598;SDS011;8918;52.092;5.232;2023-04-01T07:58:02;16.30;;;8.83;;
17598;SDS011;8918;52.092;5.232;2023-04-01T08:00:44;18.30;;;9.93;;
17598;SDS011;8918;52.092;5.232;2023-04-01T08:03:30;16.93;;;9.47;;
17598;SDS011;8918;52.092;5.232;2023-04-01T08:06:25;16.37;;;8.97;;
17598;SDS011;8918;52.092;5.232;2023-04-01T08:14:53;15.47;;;9.83;;
17598;SDS011;8918;52.092;5.232;2023-04-01T08:23:14;19.17;;;10.17;;
17598;SDS011;8918;52.092;5.232;2023-04-01T08:25:54;19.03;;;9.77;;
17598;SDS011;8918;52.092;5.232;2023-04-01T08:28:36;20.27;;;10.03;;
17598;SDS011;8918;52.092;5.232;2023-04-01T08:31:08;17.23;;;9.73;;
17598;SDS011;8918;52.092;5.232;2023-04-01T08:33:37;17.60;;;9.50;;
17598;SDS011;8918;52.092;5.232;2023-04-01T08:36:15;16.97;;;9.73;;
17598;SDS011;8918;52.092;5.232;2023-04-01T08:38:44;18.37;;;10.30;;
17598;SDS011;8918;52.092;5.232;2023-04-01T08:46:53;19.67;;;10.40;;
17598;SDS011;8918;52.092;5.232;2023-04-01T08:55:16;22.63;;;12.00;;
17598;SDS011;8918;52.092;5.232;2023-04-01T08:58:06;25.23;;;12.33;;
17598;SDS011;8918;52.092;5.232;2023-04-01T09:31:13;21.23;;;10.73;;
17598;SDS011;8918;52.092;5.232;2023-04-01T09:36:46;18.00;;;9.67;;
17598;SDS011;8918;52.092;5.232;2023-04-01T09:44:35;15.70;;;8.20;;
17598;SDS011;8918;52.092;5.232;2023-04-01T09:50:42;13.30;;;8.13;;
17598;SDS011;8918;52.092;5.232;2023-04-01T09:52:57;16.00;;;9.17;;
17598;SDS011;8918;52.092;5.232;2023-04-01T09:58:18;13.90;;;8.33;;
17598;SDS011;8918;52.092;5.232;2023-04-01T10:45:23;7.40;;;6.00;;
17598;SDS011;8918;52.092;5.232;2023-04-01T10:53:59;7.93;;;5.53;;
17598;SDS011;8918;52.092;5.232;2023-04-01T10:56:49;7.70;;;5.37;;
17598;SDS011;8918;52.092;5.232;2023-04-01T11:13:28;8.33;;;5.97;;
17598;SDS011;8918;52.092;5.232;2023-04-01T11:31:25;6.30;;;4.20;;
17598;SDS011;8918;52.092;5.232;2023-04-01T11:40:00;4.47;;;3.70;;
17598;SDS011;8918;52.092;5.232;2023-04-01T11:50:51;3.77;;;3.37;;
17598;SDS011;8918;52.092;5.232;2023-04-01T11:56:17;4.27;;;3.33;;
17598;SDS011;8918;52.092;5.232;2023-04-01T11:58:58;4.20;;;3.77;;
17598;SDS011;8918;52.092;5.232;2023-04-01T12:04:40;4.90;;;4.10;;
17598;SDS011;8918;52.092;5.232;2023-04-01T12:09:44;5.47;;;4.20;;
17598;SDS011;8918;52.092;5.232;2023-04-01T12:12:47;5.37;;;4.17;;
17598;SDS011;8918;52.092;5.232;2023-04-01T12:15:26;6.37;;;4.77;;
17598;SDS011;8918;52.092;5.232;2023-04-01T12:18:14;6.27;;;4.97;;
17598;SDS011;8918;52.092;5.232;2023-04-01T12:21:08;5.23;;;4.47;;
17598;SDS011;8918;52.092;5.232;2023-04-01T12:37:48;7.97;;;6.13;;
17598;SDS011;8918;52.092;5.232;2023-04-01T12:46:45;7.17;;;5.80;;
17598;SDS011;8918;52.092;5.232;2023-04-01T12:54:48;8.40;;;6.13;;
17598;SDS011;8918;52.092;5.232;2023-04-01T12:57:51;8.47;;;6.13;;
17598;SDS011;8918;52.092;5.232;2023-04-01T13:06:19;9.47;;;6.87;;
17598;SDS011;8918;52.092;5.232;2023-04-01T13:08:53;9.73;;;7.33;;
17598;SDS011;8918;52.092;5.232;2023-04-01T13:17:42;9.67;;;7.47;;
17598;SDS011;8918;52.092;5.232;2023-04-01T13:23:29;11.93;;;8.00;;
17598;SDS011;8918;52.092;5.232;2023-04-01T13:26:06;10.43;;;7.70;;
17598;SDS011;8918;52.092;5.232;2023-04-01T13:28:59;10.10;;;7.40;;
17598;SDS011;8918;52.092;5.232;2023-04-01T13:31:50;10.70;;;7.20;;
17598;SDS011;8918;52.092;5.232;2023-04-01T13:34:31;9.20;;;6.70;;
17598;SDS011;8918;52.092;5.232;2023-04-01T13:37:26;8.23;;;5.77;;
17598;SDS011;8918;52.092;5.232;2023-04-01T13:42:50;7.33;;;5.60;;
17598;SDS011;8918;52.092;5.232;2023-04-01T13:45:34;7.17;;;4.93;;
17598;SDS011;8918;52.092;5.232;2023-04-01T13:53:49;4.50;;;3.63;;
17598;SDS011;8918;52.092;5.232;2023-04-01T13:58:58;4.37;;;3.70;;
17598;SDS011;8918;52.092;5.232;2023-04-01T14:07:37;3.83;;;3.33;;
17598;SDS011;8918;52.092;5.232;2023-04-01T14:10:36;3.53;;;3.10;;
17598;SDS011;8918;52.092;5.232;2023-04-01T14:13:12;5.10;;;3.80;;
17598;SDS011;8918;52.092;5.232;2023-04-01T14:29:58;6.33;;;4.87;;
17598;SDS011;8918;52.092;5.232;2023-04-01T14:49:36;7.00;;;5.97;;
17598;SDS011;8918;52.092;5.232;2023-04-01T14:54:53;7.17;;;5.30;;
17598;SDS011;8918;52.092;5.232;2023-04-01T15:00:09;8.47;;;5.97;;
17598;SDS011;8918;52.092;5.232;2023-04-01T15:02:48;7.40;;;5.77;;
17598;SDS011;8918;52.092;5.232;2023-04-01T15:08:29;8.33;;;6.10;;
17598;SDS011;8918;52.092;5.232;2023-04-01T15:10:58;6.97;;;5.57;;
17598;SDS011;8918;52.092;5.232;2023-04-01T15:21:50;7.20;;;5.60;;
17598;SDS011;8918;52.092;5.232;2023-04-01T15:24:24;7.10;;;5.30;;
17598;SDS011;8918;52.092;5.232;2023-04-01T15:30:16;6.70;;;5.53;;
17598;SDS011;8918;52.092;5.232;2023-04-01T15:36:01;5.67;;;4.73;;
17598;SDS011;8918;52.092;5.232;2023-04-01T15:38:53;5.70;;;4.70;;
17598;SDS011;8918;52.092;5.232;2023-04-01T15:41:38;6.47;;;4.73;;
17598;SDS011;8918;52.092;5.232;2023-04-01T15:47:08;5.97;;;4.73;;
17598;SDS011;8918;52.092;5.232;2023-04-01T15:50:11;6.13;;;4.80;;
17598;SDS011;8918;52.092;5.232;2023-04-01T16:01:32;5.40;;;4.63;;
17598;SDS011;8918;52.092;5.232;2023-04-01T16:15:22;4.40;;;3.93;;
17598;SDS011;8918;52.092;5.232;2023-04-01T16:17:57;4.43;;;3.97;;
17598;SDS011;8918;52.092;5.232;2023-04-01T16:20:44;6.00;;;3.90;;
17598;SDS011;8918;52.092;5.232;2023-04-01T16:23:17;4.80;;;3.97;;
17598;SDS011;8918;52.092;5.232;2023-04-01T16:25:44;6.47;;;4.37;;
17598;SDS011;8918;52.092;5.232;2023-04-01T16:28:31;5.50;;;4.40;;
17598;SDS011;8918;52.092;5.232;2023-04-01T16:31:06;4.70;;;3.90;;
17598;SDS011;8918;52.092;5.232;2023-04-01T16:36:29;5.07;;;3.57;;
17598;SDS011;8918;52.092;5.232;2023-04-01T16:39:18;3.77;;;3.17;;
17598;SDS011;8918;52.092;5.232;2023-04-01T16:41:58;4.00;;;3.47;;
17598;SDS011;8918;52.092;5.232;2023-04-01T16:44:54;4.40;;;3.17;;
17598;SDS011;8918;52.092;5.232;2023-04-01T16:47:35;4.93;;;4.03;;
17598;SDS011;8918;52.092;5.232;2023-04-01T16:52:54;4.20;;;3.77;;
17598;SDS011;8918;52.092;5.232;2023-04-01T16:55:34;4.60;;;4.13;;
17598;SDS011;8918;52.092;5.232;2023-04-01T16:58:14;3.80;;;3.40;;
17598;SDS011;8918;52.092;5.232;2023-04-01T17:01:02;6.87;;;5.70;;
17598;SDS011;8918;52.092;5.232;2023-04-01T17:03:33;4.57;;;3.80;;
17598;SDS011;8918;52.092;5.232;2023-04-01T17:06:14;3.80;;;3.40;;
17598;SDS011;8918;52.092;5.232;2023-04-01T17:22:22;7.43;;;4.77;;
17598;SDS011;8918;52.092;5.232;2023-04-01T17:31:02;5.33;;;4.83;;
17598;SDS011;8918;52.092;5.232;2023-04-01T17:53:32;3.90;;;3.53;;
17598;SDS011;8918;52.092;5.232;2023-04-01T17:58:58;4.30;;;3.90;;
17598;SDS011;8918;52.092;5.232;2023-04-01T18:01:51;6.87;;;5.80;;
17598;SDS011;8918;52.092;5.232;2023-04-01T18:04:42;7.70;;;6.53;;
17598;SDS011;8918;52.092;5.232;2023-04-01T18:07:15;6.37;;;5.33;;
17598;SDS011;8918;52.092;5.232;2023-04-01T18:09:56;5.00;;;4.03;;
17598;SDS011;8918;52.092;5.232;2023-04-01T18:12:29;4.70;;;4.20;;
17598;SDS011;8918;52.092;5.232;2023-04-01T18:20:54;5.23;;;4.43;;
17598;SDS011;8918;52.092;5.232;2023-04-01T18:26:26;5.43;;;4.93;;
17598;SDS011;8918;52.092;5.232;2023-04-01T18:31:47;5.53;;;5.03;;
17598;SDS011;8918;52.092;5.232;2023-04-01T18:34:18;5.70;;;5.07;;
17598;SDS011;8918;52.092;5.232;2023-04-01T18:39:57;6.33;;;5.60;;
17598;SDS011;8918;52.092;5.232;2023-04-01T18:42:43;7.60;;;5.77;;
17598;SDS011;8918;52.092;5.232;2023-04-01T18:45:54;6.23;;;5.63;;
17598;SDS011;8918;52.092;5.232;2023-04-01T18:51:17;6.37;;;5.50;;
17598;SDS011;8918;52.092;5.232;2023-04-01T18:54:21;7.17;;;5.73;;
17598;SDS011;8918;52.092;5.232;2023-04-01T18:57:11;6.33;;;5.07;;
17598;SDS011;8918;52.092;5.232;2023-04-01T18:59:45;7.50;;;5.80;;
17598;SDS011;8918;52.092;5.232;2023-04-01T19:02:40;6.70;;;5.57;;
17598;SDS011;8918;52.092;5.232;2023-04-01T19:07:46;6.70;;;6.00;;
17598;SDS011;8918;52.092;5.232;2023-04-01T19:10:22;6.80;;;6.10;;
17598;SDS011;8918;52.092;5.232;2023-04-01T19:13:11;6.43;;;5.73;;
17598;SDS011;8918;52.092;5.232;2023-04-01T19:15:51;8.50;;;6.80;;
17598;SDS011;8918;52.092;5.232;2023-04-01T19:19:08;7.13;;;6.40;;
17598;SDS011;8918;52.092;5.232;2023-04-01T19:32:42;10.83;;;8.50;;
17598;SDS011;8918;52.092;5.232;2023-04-01T19:35:18;8.17;;;7.10;;
17598;SDS011;8918;52.092;5.232;2023-04-01T19:38:04;7.70;;;6.47;;
17598;SDS011;8918;52.092;5.232;2023-04-01T19:48:54;9.30;;;7.90;;
17598;SDS011;8918;52.092;5.232;2023-04-01T20:05:34;8.67;;;7.77;;
17598;SDS011;8918;52.092;5.232;2023-04-01T20:08:29;8.90;;;8.00;;
17598;SDS011;8918;52.092;5.232;2023-04-01T20:14:29;11.07;;;8.23;;
17598;SDS011;8918;52.092;5.232;2023-04-01T20:19:58;9.60;;;7.87;;
17598;SDS011;8918;52.092;5.232;2023-04-01T20:25:24;9.63;;;8.33;;
17598;SDS011;8918;52.092;5.232;2023-04-01T20:27:56;10.77;;;8.63;;
17598;SDS011;8918;52.092;5.232;2023-04-01T20:30:30;10.30;;;8.60;;
17598;SDS011;8918;52.092;5.232;2023-04-01T20:39:13;10.17;;;8.20;;
17598;SDS011;8918;52.092;5.232;2023-04-01T20:44:41;10.57;;;8.63;;
17598;SDS011;8918;52.092;5.232;2023-04-01T20:55:18;9.40;;;7.90;;
17598;SDS011;8918;52.092;5.232;2023-04-01T21:06:16;10.07;;;7.43;;
17598;SDS011;8918;52.092;5.232;2023-04-01T21:36:02;8.53;;;6.93;;
17598;SDS011;8918;52.092;5.232;2023-04-01T21:58:00;10.67;;;8.23;;
17598;SDS011;8918;52.092;5.232;2023-04-01T22:00:32;10.40;;;7.87;;
17598;SDS011;8918;52.092;5.232;2023-04-01T22:16:50;12.83;;;8.57;;
17598;SDS011;8918;52.092;5.232;2023-04-01T22:24:55;10.87;;;8.40;;
17598;SDS011;8918;52.092;5.232;2023-04-01T22:27:57;11.70;;;8.93;;
17598;SDS011;8918;52.092;5.232;2023-04-01T22:31:14;9.07;;;7.93;;
17598;SDS011;8918;52.092;5.232;2023-04-01T22:43:47;10.70;;;8.83;;
17598;SDS011;8918;52.092;5.232;2023-04-01T22:51:41;11.40;;;8.70;;
17598;SDS011;8918;52.092;5.232;2023-04-01T22:56:59;12.93;;;8.97;;
17598;SDS011;8918;52.092;5.232;2023-04-01T23:02:24;13.30;;;9.53;;
17598;SDS011;8918;52.092;5.232;2023-04-01T23:04:58;13.17;;;9.90;;
17598;SDS011;8918;52.092;5.232;2023-04-01T23:07:34;13.30;;;9.87;;
17598;SDS011;8918;52.092;5.232;2023-04-01T23:10:21;13.33;;;9.30;;
17598;SDS011;8918;52.092;5.232;2023-04-01T23:13:04;12.40;;;9.70;;
17598;SDS011;8918;52.092;5.232;2023-04-01T23:15:40;13.60;;;9.97;;
17598;SDS011;8918;52.092;5.232;2023-04-01T23:20:54;17.47;;;10.57;;
17598;SDS011;8918;52.092;5.232;2023-04-01T23:28:53;14.63;;;9.90;;
17598;SDS011;8918;52.092;5.232;2023-04-01T23:34:03;12.60;;;9.73;;
17598;SDS011;8918;52.092;5.232;2023-04-01T23:36:43;14.17;;;10.83;;
17598;SDS011;8918;52.092;5.232;2023-04-01T23:39:22;16.93;;;10.20;;
17598;SDS011;8918;52.092;5.232;2023-04-01T23:41:55;17.03;;;10.43;;
17598;SDS011;8918;52.092;5.232;2023-04-01T23:44:25;15.37;;;10.57;;
17598;SDS011;8918;52.092;5.232;2023-04-01T23:46:53;12.93;;;10.10;;
17598;SDS011;8918;52.092;5.232;2023-04-01T23:49:30;15.10;;;10.30;;
17598;SDS011;8918;52.092;5.232;2023-04-01T23:52:09;16.27;;;10.00;;
17598;SDS011;8918;52.092;5.232;2023-04-01T23:54:49;16.40;;;10.77;;
17598;SDS011;8918;52.092;5.232;2023-04-01T23:57:21;14.40;;;10.20;;
